»·PEaware :: AAY2 KLAS-KFAT

AAY2 :: KLAS-KFAT

FLIGHT INFORMATION

Flight Status: Arrived
Operator:
Allegiant Air
More flights by this operator :: More flights under this callsign
Pilot: Mark D. (12)
Aircraft: AIRBUS A319
(A319)
More flights by this aircraft type
Origin: KLAS McCarran Intl
United States
Destination: KFAT Fresno Yosemite Intl
United States
More flights between these airports :: More routes between these airports
Route: SHEAD1 KENNO BIH FRA
File this flight plan on PilotEdge
Remarks: www.pilotcentral.org / PBN / A1B1C1D1O1S1 NAV / RNVD1E2A1 DOF / 181003 REG / N319NB EET / KZOA0020 OPR / AAY PER / C RMK / TCAS SIMBRIEF
Altitude:
(Current/Filed)
32,000ft
Speed:
(Current/Filed)
460kts
Departed: 03-Oct-18 07:31 PM
Arrived: 03-Oct-18 08:21 PM
Distance/Time
Traveled:
224nm/0:50
Distance/Time
To Go:
Arrived

Flight Plot

Page will automatically refresh every two minutes.

Flight plan parsing failed; only flown route is shown


Map Options




Map Legend


Flown Route
Filed Route
Departure Airport
Arrival Airport
Navaid (VOR, NDB)
Fix

Horizontal Profiles

Position Reports

Time Latitude Longitude Heading Altitude Ground
Speed
03-Oct-18 19:07 36.084999 -115.154943 55 2195ft 0kts
03-Oct-18 19:08 36.084999 -115.154943 55 2195ft 0kts
03-Oct-18 19:09 36.084999 -115.154943 55 2195ft 0kts
03-Oct-18 19:10 36.084999 -115.154943 55 2195ft 0kts
03-Oct-18 19:11 36.084999 -115.154943 55 2195ft 0kts
03-Oct-18 19:12 36.084999 -115.154943 55 2195ft 0kts
03-Oct-18 19:13 36.084999 -115.154943 55 2195ft 0kts
03-Oct-18 19:14 36.084999 -115.154943 55 2195ft 0kts
03-Oct-18 19:15 36.084999 -115.154943 55 2195ft 0kts
03-Oct-18 19:16 36.084999 -115.154943 55 2195ft 0kts
03-Oct-18 19:17 36.084999 -115.154943 55 2195ft 0kts
03-Oct-18 19:18 36.084999 -115.154943 55 2195ft 0kts
03-Oct-18 19:19 36.084999 -115.154943 55 2195ft 0kts
03-Oct-18 19:20 36.084999 -115.154943 55 2195ft 0kts
03-Oct-18 19:21 36.084999 -115.154943 55 2195ft 0kts
03-Oct-18 19:22 36.084999 -115.154943 55 2195ft 0kts
03-Oct-18 19:23 36.084782 -115.155325 55 2195ft 2kts
03-Oct-18 19:24 36.084689 -115.155490 54 2195ft 0kts
03-Oct-18 19:25 36.084690 -115.155488 54 2195ft 0kts
03-Oct-18 19:26 36.084691 -115.155486 54 2195ft 0kts
03-Oct-18 19:27 36.082464 -115.154431 151 2195ft 15kts
03-Oct-18 19:28 36.079434 -115.152020 179 2195ft 3kts
03-Oct-18 19:29 36.078502 -115.147055 95 2195ft 24kts
03-Oct-18 19:30 36.078269 -115.137498 90 2195ft 28kts
03-Oct-18 19:31 36.078281 -115.128075 90 2195ft 26kts
03-Oct-18 19:32 36.077166 -115.121262 171 2195ft 13kts
03-Oct-18 19:33 36.076386 -115.137661 268 2195ft 145kts
03-Oct-18 19:34 36.076391 -115.203248 267 4822ft 216kts
03-Oct-18 19:35 36.063216 -115.282513 217 6977ft 266kts
03-Oct-18 19:36 35.990629 -115.299723 191 10124ft 272kts
03-Oct-18 19:37 35.923689 -115.360224 221 13097ft 334kts
03-Oct-18 19:38 35.888784 -115.467827 264 16542ft 370kts
03-Oct-18 19:39 35.890046 -115.597043 265 19651ft 383kts
03-Oct-18 19:40 35.892128 -115.730393 264 22201ft 394kts
03-Oct-18 19:41 35.894358 -115.867398 264 24300ft 404kts
03-Oct-18 19:42 35.929609 -116.002714 305 25890ft 458kts
03-Oct-18 19:43 36.023642 -116.113933 308 27100ft 476kts
03-Oct-18 19:44 36.120840 -116.227453 308 28290ft 485kts
03-Oct-18 19:45 36.220207 -116.343109 308 29319ft 494kts
03-Oct-18 19:46 36.320580 -116.459877 308 30538ft 495kts
03-Oct-18 19:47 36.420687 -116.576459 308 31796ft 491kts
03-Oct-18 19:48 36.519357 -116.692611 308 31963ft 487kts
03-Oct-18 19:49 36.626537 -116.796677 322 31961ft 497kts
03-Oct-18 19:50 36.744343 -116.885462 322 31973ft 493kts
03-Oct-18 19:51 36.861545 -116.974268 322 31979ft 491kts
03-Oct-18 19:52 36.978098 -117.063011 322 31987ft 488kts
03-Oct-18 19:53 37.093830 -117.151508 323 31992ft 487kts
03-Oct-18 19:54 37.208932 -117.239895 323 31998ft 485kts
03-Oct-18 19:55 37.294589 -117.358192 281 32004ft 449kts
03-Oct-18 19:56 37.311387 -117.510710 270 32002ft 441kts
03-Oct-18 19:57 37.324459 -117.663741 270 31999ft 441kts
03-Oct-18 19:58 37.336868 -117.817025 270 31995ft 440kts
03-Oct-18 19:59 37.348804 -117.970313 271 31163ft 441kts
03-Oct-18 20:00 37.360326 -118.124702 273 28542ft 438kts
03-Oct-18 20:01 37.371355 -118.273844 273 25739ft 420kts
03-Oct-18 20:02 37.364960 -118.416753 254 23378ft 411kts
03-Oct-18 20:03 37.336359 -118.552175 253 21691ft 395kts
03-Oct-18 20:04 37.307938 -118.684106 253 20123ft 387kts
03-Oct-18 20:05 37.279967 -118.812486 253 18583ft 371kts
03-Oct-18 20:06 37.254327 -118.929093 252 17283ft 320kts
03-Oct-18 20:07 37.230701 -119.035594 252 16999ft 315kts
03-Oct-18 20:08 37.205595 -119.148619 252 14389ft 357kts
03-Oct-18 20:09 37.180167 -119.262664 251 13413ft 325kts
03-Oct-18 20:10 37.156744 -119.366723 251 12619ft 294kts
03-Oct-18 20:11 37.134221 -119.464214 243 11211ft 287kts
03-Oct-18 20:12 37.068570 -119.507042 193 10500ft 268kts
03-Oct-18 20:13 36.996671 -119.493599 163 8809ft 268kts
03-Oct-18 20:14 36.926146 -119.466340 164 7203ft 262kts
03-Oct-18 20:15 36.857606 -119.439108 163 5618ft 254kts
03-Oct-18 20:16 36.790410 -119.417225 192 4989ft 242kts
03-Oct-18 20:17 36.741013 -119.463291 242 4162ft 216kts
03-Oct-18 20:18 36.716519 -119.528427 243 3244ft 195kts
03-Oct-18 20:19 36.709083 -119.592390 282 2156ft 176kts
03-Oct-18 20:20 36.733872 -119.641289 299 1652ft 157kts
03-Oct-18 20:21 36.758764 -119.685905 304 731ft 149kts
03-Oct-18 20:22 36.778332 -119.720077 302 350ft 44kts
03-Oct-18 20:23 36.779508 -119.724279 214 350ft 5kts
03-Oct-18 20:24 36.774679 -119.720221 133 350ft 26kts
03-Oct-18 20:25 36.772010 -119.717778 235 350ft 3kts
03-Oct-18 20:26 36.771978 -119.717836 235 350ft 0kts
03-Oct-18 20:27 36.771978 -119.717836 235 350ft 0kts
03-Oct-18 20:28 36.771978 -119.717836 235 350ft 0kts
03-Oct-18 20:29 36.771978 -119.717836 235 350ft 0kts
03-Oct-18 20:30 36.771978 -119.717836 235 350ft 0kts
03-Oct-18 20:31 36.771978 -119.717836 235 350ft 0kts

Navigation Log

Ident Type
Flight plan parsing failed, navigation log unavailable